sensor_id;sensor_type;location;lat;lon;timestamp;temperature;humidity
11399;DHT22;5755;48.116;11.608;2023-03-23T00:01:34;9.50;70.90
11399;DHT22;5755;48.116;11.608;2023-03-23T00:04:02;9.50;71.50
11399;DHT22;5755;48.116;11.608;2023-03-23T00:06:30;9.50;71.60
11399;DHT22;5755;48.116;11.608;2023-03-23T00:09:04;9.50;71.50
11399;DHT22;5755;48.116;11.608;2023-03-23T00:11:32;9.50;70.40
11399;DHT22;5755;48.116;11.608;2023-03-23T00:14:14;9.50;70.70
11399;DHT22;5755;48.116;11.608;2023-03-23T00:16:55;9.40;72.30
11399;DHT22;5755;48.116;11.608;2023-03-23T00:19:42;9.50;70.50
11399;DHT22;5755;48.116;11.608;2023-03-23T00:22:13;9.50;71.50
11399;DHT22;5755;48.116;11.608;2023-03-23T00:24:41;9.60;74.00
11399;DHT22;5755;48.116;11.608;2023-03-23T00:27:08;9.50;74.50
11399;DHT22;5755;48.116;11.608;2023-03-23T00:29:39;9.40;74.30
11399;DHT22;5755;48.116;11.608;2023-03-23T00:32:22;9.40;74.30
11399;DHT22;5755;48.116;11.608;2023-03-23T00:35:03;9.40;74.30
11399;DHT22;5755;48.116;11.608;2023-03-23T00:37:31;9.40;74.30
11399;DHT22;5755;48.116;11.608;2023-03-23T00:39:58;9.40;74.30
11399;DHT22;5755;48.116;11.608;2023-03-23T00:42:25;9.40;74.40
11399;DHT22;5755;48.116;11.608;2023-03-23T00:44:55;9.40;74.30
11399;DHT22;5755;48.116;11.608;2023-03-23T00:47:36;9.40;74.30
11399;DHT22;5755;48.116;11.608;2023-03-23T00:50:03;9.60;73.90
11399;DHT22;5755;48.116;11.608;2023-03-23T00:52:31;9.50;73.00
11399;DHT22;5755;48.116;11.608;2023-03-23T00:54:58;9.60;74.50
11399;DHT22;5755;48.116;11.608;2023-03-23T00:57:25;9.60;74.60
11399;DHT22;5755;48.116;11.608;2023-03-23T00:59:57;9.60;74.50
11399;DHT22;5755;48.116;11.608;2023-03-23T01:02:37;9.50;74.40
11399;DHT22;5755;48.116;11.608;2023-03-23T01:05:06;9.50;74.50
11399;DHT22;5755;48.116;11.608;2023-03-23T01:07:33;9.50;74.60
11399;DHT22;5755;48.116;11.608;2023-03-23T01:10:00;9.50;74.50
11399;DHT22;5755;48.116;11.608;2023-03-23T01:12:28;9.50;74.40
11399;DHT22;5755;48.116;11.608;2023-03-23T01:14:58;9.50;74.40
11399;DHT22;5755;48.116;11.608;2023-03-23T01:17:40;9.60;74.50
11399;DHT22;5755;48.116;11.608;2023-03-23T01:20:08;9.60;74.50
11399;DHT22;5755;48.116;11.608;2023-03-23T01:22:48;9.60;74.50
11399;DHT22;5755;48.116;11.608;2023-03-23T01:25:16;9.50;75.20
11399;DHT22;5755;48.116;11.608;2023-03-23T01:27:43;9.50;76.00
11399;DHT22;5755;48.116;11.608;2023-03-23T01:30:13;9.50;77.20
11399;DHT22;5755;48.116;11.608;2023-03-23T01:32:41;9.40;80.20
11399;DHT22;5755;48.116;11.608;2023-03-23T01:35:09;9.50;77.70
11399;DHT22;5755;48.116;11.608;2023-03-23T01:37:36;9.50;76.80
11399;DHT22;5755;48.116;11.608;2023-03-23T01:40:03;9.50;76.00
11399;DHT22;5755;48.116;11.608;2023-03-23T01:42:32;9.50;76.80
11399;DHT22;5755;48.116;11.608;2023-03-23T01:45:31;9.50;77.20
11399;DHT22;5755;48.116;11.608;2023-03-23T01:48:36;9.50;76.60
11399;DHT22;5755;48.116;11.608;2023-03-23T01:51:19;9.40;76.50
11399;DHT22;5755;48.116;11.608;2023-03-23T01:53:50;9.50;76.50
11399;DHT22;5755;48.116;11.608;2023-03-23T01:56:20;9.50;76.20
11399;DHT22;5755;48.116;11.608;2023-03-23T01:59:02;9.50;76.40
11399;DHT22;5755;48.116;11.608;2023-03-23T02:01:30;9.40;76.50
11399;DHT22;5755;48.116;11.608;2023-03-23T02:04:05;9.40;77.70
11399;DHT22;5755;48.116;11.608;2023-03-23T02:06:33;9.30;78.40
11399;DHT22;5755;48.116;11.608;2023-03-23T02:09:00;9.30;79.20
11399;DHT22;5755;48.116;11.608;2023-03-23T02:11:28;9.30;78.40
11399;DHT22;5755;48.116;11.608;2023-03-23T02:13:55;9.40;77.90
11399;DHT22;5755;48.116;11.608;2023-03-23T02:16:32;9.40;78.10
11399;DHT22;5755;48.116;11.608;2023-03-23T02:23:14;9.50;77.90
11399;DHT22;5755;48.116;11.608;2023-03-23T02:26:11;9.40;79.20
11399;DHT22;5755;48.116;11.608;2023-03-23T02:32:21;9.40;78.30
11399;DHT22;5755;48.116;11.608;2023-03-23T02:35:06;9.50;78.50
11399;DHT22;5755;48.116;11.608;2023-03-23T02:37:38;9.50;78.70
11399;DHT22;5755;48.116;11.608;2023-03-23T02:40:09;9.60;79.40
11399;DHT22;5755;48.116;11.608;2023-03-23T02:42:54;9.60;77.40
11399;DHT22;5755;48.116;11.608;2023-03-23T02:45:37;9.60;77.70
11399;DHT22;5755;48.116;11.608;2023-03-23T02:48:06;9.60;77.40
11399;DHT22;5755;48.116;11.608;2023-03-23T02:50:36;9.50;77.30
11399;DHT22;5755;48.116;11.608;2023-03-23T02:53:41;9.50;78.90
11399;DHT22;5755;48.116;11.608;2023-03-23T02:56:09;9.40;78.90
11399;DHT22;5755;48.116;11.608;2023-03-23T02:58:37;9.30;80.10
11399;DHT22;5755;48.116;11.608;2023-03-23T03:01:48;9.20;81.80
11399;DHT22;5755;48.116;11.608;2023-03-23T03:04:20;9.10;82.50
11399;DHT22;5755;48.116;11.608;2023-03-23T03:06:57;9.10;83.10
11399;DHT22;5755;48.116;11.608;2023-03-23T03:20:21;9.10;82.90
11399;DHT22;5755;48.116;11.608;2023-03-23T03:23:02;9.10;83.60
11399;DHT22;5755;48.116;11.608;2023-03-23T03:25:33;9.00;83.60
11399;DHT22;5755;48.116;11.608;2023-03-23T03:28:01;9.00;84.80
11399;DHT22;5755;48.116;11.608;2023-03-23T03:30:30;9.00;85.50
11399;DHT22;5755;48.116;11.608;2023-03-23T03:33:14;9.00;85.20
11399;DHT22;5755;48.116;11.608;2023-03-23T03:35:45;9.00;84.30
11399;DHT22;5755;48.116;11.608;2023-03-23T03:38:26;9.00;84.90
11399;DHT22;5755;48.116;11.608;2023-03-23T03:41:07;9.10;86.60
11399;DHT22;5755;48.116;11.608;2023-03-23T03:43:34;9.10;84.40
11399;DHT22;5755;48.116;11.608;2023-03-23T03:46:01;9.00;84.30
11399;DHT22;5755;48.116;11.608;2023-03-23T03:48:28;9.00;85.30
11399;DHT22;5755;48.116;11.608;2023-03-23T03:50:56;9.00;84.50
11399;DHT22;5755;48.116;11.608;2023-03-23T03:53:27;8.90;85.30
11399;DHT22;5755;48.116;11.608;2023-03-23T03:56:17;8.80;89.00
11399;DHT22;5755;48.116;11.608;2023-03-23T03:58:45;8.70;88.40
11399;DHT22;5755;48.116;11.608;2023-03-23T04:01:32;8.70;88.00
11399;DHT22;5755;48.116;11.608;2023-03-23T04:04:13;8.70;87.80
11399;DHT22;5755;48.116;11.608;2023-03-23T04:13:27;8.80;86.30
11399;DHT22;5755;48.116;11.608;2023-03-23T04:15:54;8.80;87.20
11399;DHT22;5755;48.116;11.608;2023-03-23T04:21:26;8.90;86.50
11399;DHT22;5755;48.116;11.608;2023-03-23T04:23:54;8.90;86.00
11399;DHT22;5755;48.116;11.608;2023-03-23T04:26:23;8.80;87.00
11399;DHT22;5755;48.116;11.608;2023-03-23T04:29:03;8.80;88.20
11399;DHT22;5755;48.116;11.608;2023-03-23T04:31:31;8.70;88.50
11399;DHT22;5755;48.116;11.608;2023-03-23T04:34:18;8.70;88.50
11399;DHT22;5755;48.116;11.608;2023-03-23T04:36:45;8.80;87.90
11399;DHT22;5755;48.116;11.608;2023-03-23T04:39:13;8.80;88.10
11399;DHT22;5755;48.116;11.608;2023-03-23T04:41:43;8.80;88.20
11399;DHT22;5755;48.116;11.608;2023-03-23T04:44:23;8.80;87.70
11399;DHT22;5755;48.116;11.608;2023-03-23T04:46:50;8.90;87.10
11399;DHT22;5755;48.116;11.608;2023-03-23T04:49:19;8.90;86.80
11399;DHT22;5755;48.116;11.608;2023-03-23T04:51:48;9.00;86.30
11399;DHT22;5755;48.116;11.608;2023-03-23T04:54:16;8.90;86.70
11399;DHT22;5755;48.116;11.608;2023-03-23T04:56:44;8.90;88.10
11399;DHT22;5755;48.116;11.608;2023-03-23T04:59:13;8.90;87.40
11399;DHT22;5755;48.116;11.608;2023-03-23T05:01:40;9.00;87.50
11399;DHT22;5755;48.116;11.608;2023-03-23T05:04:11;9.00;88.10
11399;DHT22;5755;48.116;11.608;2023-03-23T05:06:59;9.00;90.20
11399;DHT22;5755;48.116;11.608;2023-03-23T05:09:26;8.90;90.40
11399;DHT22;5755;48.116;11.608;2023-03-23T05:11:57;8.90;90.40
11399;DHT22;5755;48.116;11.608;2023-03-23T05:14:42;8.90;90.00
11399;DHT22;5755;48.116;11.608;2023-03-23T05:17:09;9.00;89.30
11399;DHT22;5755;48.116;11.608;2023-03-23T05:19:36;9.00;89.00
11399;DHT22;5755;48.116;11.608;2023-03-23T05:22:03;9.00;89.30
11399;DHT22;5755;48.116;11.608;2023-03-23T05:24:31;9.10;87.40
11399;DHT22;5755;48.116;11.608;2023-03-23T05:26:59;9.20;87.10
11399;DHT22;5755;48.116;11.608;2023-03-23T05:29:31;9.20;88.50
11399;DHT22;5755;48.116;11.608;2023-03-23T05:32:18;9.20;88.80
11399;DHT22;5755;48.116;11.608;2023-03-23T05:34:45;9.20;90.10
11399;DHT22;5755;48.116;11.608;2023-03-23T05:37:12;9.20;89.00
11399;DHT22;5755;48.116;11.608;2023-03-23T05:39:40;9.10;88.60
11399;DHT22;5755;48.116;11.608;2023-03-23T05:42:08;9.20;90.10
11399;DHT22;5755;48.116;11.608;2023-03-23T05:44:35;9.20;89.60
11399;DHT22;5755;48.116;11.608;2023-03-23T05:47:03;9.30;88.10
11399;DHT22;5755;48.116;11.608;2023-03-23T05:50:10;9.40;87.20
11399;DHT22;5755;48.116;11.608;2023-03-23T05:52:38;9.50;85.80
11399;DHT22;5755;48.116;11.608;2023-03-23T05:55:07;9.60;84.60
11399;DHT22;5755;48.116;11.608;2023-03-23T05:57:38;9.80;83.10
11399;DHT22;5755;48.116;11.608;2023-03-23T06:00:19;9.90;81.90
11399;DHT22;5755;48.116;11.608;2023-03-23T06:02:49;10.00;77.50
11399;DHT22;5755;48.116;11.608;2023-03-23T06:05:17;10.10;78.20
11399;DHT22;5755;48.116;11.608;2023-03-23T06:07:44;10.20;77.20
11399;DHT22;5755;48.116;11.608;2023-03-23T06:10:11;10.20;77.20
11399;DHT22;5755;48.116;11.608;2023-03-23T06:12:40;10.10;75.90
11399;DHT22;5755;48.116;11.608;2023-03-23T06:15:08;10.10;76.70
11399;DHT22;5755;48.116;11.608;2023-03-23T06:17:36;10.10;77.20
11399;DHT22;5755;48.116;11.608;2023-03-23T06:20:07;10.00;77.20
11399;DHT22;5755;48.116;11.608;2023-03-23T06:25:18;10.00;77.90
11399;DHT22;5755;48.116;11.608;2023-03-23T06:27:49;10.00;78.60
11399;DHT22;5755;48.116;11.608;2023-03-23T06:30:47;10.10;79.60
11399;DHT22;5755;48.116;11.608;2023-03-23T06:33:15;10.10;79.10
11399;DHT22;5755;48.116;11.608;2023-03-23T06:35:44;10.20;79.90
11399;DHT22;5755;48.116;11.608;2023-03-23T06:42:09;10.30;79.50
11399;DHT22;5755;48.116;11.608;2023-03-23T06:45:02;10.40;78.20
11399;DHT22;5755;48.116;11.608;2023-03-23T06:47:48;10.60;77.10
11399;DHT22;5755;48.116;11.608;2023-03-23T06:50:22;10.60;78.10
11399;DHT22;5755;48.116;11.608;2023-03-23T06:53:11;10.70;76.00
11399;DHT22;5755;48.116;11.608;2023-03-23T06:55:39;10.80;74.00
11399;DHT22;5755;48.116;11.608;2023-03-23T06:58:21;10.80;74.00
11399;DHT22;5755;48.116;11.608;2023-03-23T07:01:10;11.00;72.90
11399;DHT22;5755;48.116;11.608;2023-03-23T07:04:07;11.10;70.90
11399;DHT22;5755;48.116;11.608;2023-03-23T07:07:01;11.10;70.00
11399;DHT22;5755;48.116;11.608;2023-03-23T07:09:42;11.20;69.90
11399;DHT22;5755;48.116;11.608;2023-03-23T07:12:09;11.30;68.40
11399;DHT22;5755;48.116;11.608;2023-03-23T07:14:57;11.40;67.50
11399;DHT22;5755;48.116;11.608;2023-03-23T07:17:26;11.50;67.80
11399;DHT22;5755;48.116;11.608;2023-03-23T07:19:52;11.60;66.30
11399;DHT22;5755;48.116;11.608;2023-03-23T07:22:20;11.70;65.50
11399;DHT22;5755;48.116;11.608;2023-03-23T07:24:48;11.80;65.30
11399;DHT22;5755;48.116;11.608;2023-03-23T07:27:16;11.90;64.50
11399;DHT22;5755;48.116;11.608;2023-03-23T07:29:43;12.10;61.80
11399;DHT22;5755;48.116;11.608;2023-03-23T07:32:27;12.30;59.60
11399;DHT22;5755;48.116;11.608;2023-03-23T07:36:08;12.50;56.70
11399;DHT22;5755;48.116;11.608;2023-03-23T07:38:57;12.80;54.90
11399;DHT22;5755;48.116;11.608;2023-03-23T07:41:40;13.00;51.10
11399;DHT22;5755;48.116;11.608;2023-03-23T07:44:22;13.30;49.80
11399;DHT22;5755;48.116;11.608;2023-03-23T07:47:03;13.40;48.30
11399;DHT22;5755;48.116;11.608;2023-03-23T07:49:32;13.80;50.10
11399;DHT22;5755;48.116;11.608;2023-03-23T07:52:19;13.90;48.90
11399;DHT22;5755;48.116;11.608;2023-03-23T07:54:59;14.30;42.60
11399;DHT22;5755;48.116;11.608;2023-03-23T07:57:27;14.30;41.50
11399;DHT22;5755;48.116;11.608;2023-03-23T08:00:09;14.50;42.20
11399;DHT22;5755;48.116;11.608;2023-03-23T08:02:52;14.70;39.50
11399;DHT22;5755;48.116;11.608;2023-03-23T08:08:44;14.90;36.20
11399;DHT22;5755;48.116;11.608;2023-03-23T08:11:12;14.90;36.90
11399;DHT22;5755;48.116;11.608;2023-03-23T08:13:42;14.60;36.10
11399;DHT22;5755;48.116;11.608;2023-03-23T08:16:22;14.70;36.20
11399;DHT22;5755;48.116;11.608;2023-03-23T08:18:51;14.70;36.40
11399;DHT22;5755;48.116;11.608;2023-03-23T08:21:33;14.70;37.30
11399;DHT22;5755;48.116;11.608;2023-03-23T08:24:17;14.70;36.20
11399;DHT22;5755;48.116;11.608;2023-03-23T08:26:58;14.70;35.40
11399;DHT22;5755;48.116;11.608;2023-03-23T08:29:25;14.70;35.70
11399;DHT22;5755;48.116;11.608;2023-03-23T08:32:06;14.60;35.80
11399;DHT22;5755;48.116;11.608;2023-03-23T08:34:34;14.70;37.20
11399;DHT22;5755;48.116;11.608;2023-03-23T08:37:04;14.70;37.30
11399;DHT22;5755;48.116;11.608;2023-03-23T08:40:09;14.60;36.70
11399;DHT22;5755;48.116;11.608;2023-03-23T08:43:14;14.60;37.00
11399;DHT22;5755;48.116;11.608;2023-03-23T08:45:54;14.70;37.40
11399;DHT22;5755;48.116;11.608;2023-03-23T08:48:22;14.70;38.40
11399;DHT22;5755;48.116;11.608;2023-03-23T08:51:03;14.80;38.30
11399;DHT22;5755;48.116;11.608;2023-03-23T08:53:32;15.10;37.20
11399;DHT22;5755;48.116;11.608;2023-03-23T08:56:13;15.10;36.70
11399;DHT22;5755;48.116;11.608;2023-03-23T08:58:40;15.20;35.50
11399;DHT22;5755;48.116;11.608;2023-03-23T09:01:08;15.30;37.20
11399;DHT22;5755;48.116;11.608;2023-03-23T09:03:36;15.40;37.00
11399;DHT22;5755;48.116;11.608;2023-03-23T09:06:06;15.60;36.30
11399;DHT22;5755;48.116;11.608;2023-03-23T09:08:58;15.60;35.30
11399;DHT22;5755;48.116;11.608;2023-03-23T09:11:59;15.70;35.60
11399;DHT22;5755;48.116;11.608;2023-03-23T09:14:29;15.80;33.30
11399;DHT22;5755;48.116;11.608;2023-03-23T09:16:56;16.10;30.60
11399;DHT22;5755;48.116;11.608;2023-03-23T09:19:22;16.30;29.00
11399;DHT22;5755;48.116;11.608;2023-03-23T09:21:50;16.50;29.20
11399;DHT22;5755;48.116;11.608;2023-03-23T09:27:17;16.50;29.10
11399;DHT22;5755;48.116;11.608;2023-03-23T09:29:44;16.60;29.20
11399;DHT22;5755;48.116;11.608;2023-03-23T09:35:00;16.60;24.60
11399;DHT22;5755;48.116;11.608;2023-03-23T09:37:48;16.70;25.30
11399;DHT22;5755;48.116;11.608;2023-03-23T09:40:23;16.70;25.80
11399;DHT22;5755;48.116;11.608;2023-03-23T09:46:14;17.20;24.10
11399;DHT22;5755;48.116;11.608;2023-03-23T09:48:59;17.30;23.10
11399;DHT22;5755;48.116;11.608;2023-03-23T09:51:46;17.60;21.70
11399;DHT22;5755;48.116;11.608;2023-03-23T09:54:19;17.70;21.40
11399;DHT22;5755;48.116;11.608;2023-03-23T09:57:03;17.80;22.20
11399;DHT22;5755;48.116;11.608;2023-03-23T09:59:37;17.70;21.70
11399;DHT22;5755;48.116;11.608;2023-03-23T10:02:39;18.00;22.00
11399;DHT22;5755;48.116;11.608;2023-03-23T10:05:26;18.30;20.00
11399;DHT22;5755;48.116;11.608;2023-03-23T10:07:55;18.60;20.30
11399;DHT22;5755;48.116;11.608;2023-03-23T10:10:39;18.80;18.50
11399;DHT22;5755;48.116;11.608;2023-03-23T10:13:15;18.90;18.50
11399;DHT22;5755;48.116;11.608;2023-03-23T10:15:58;18.90;18.50
11399;DHT22;5755;48.116;11.608;2023-03-23T10:19:12;19.00;19.30
11399;DHT22;5755;48.116;11.608;2023-03-23T10:22:21;19.00;19.30
11399;DHT22;5755;48.116;11.608;2023-03-23T10:25:14;18.80;18.90
11399;DHT22;5755;48.116;11.608;2023-03-23T10:27:59;18.50;17.70
11399;DHT22;5755;48.116;11.608;2023-03-23T10:40:49;17.80;20.00
11399;DHT22;5755;48.116;11.608;2023-03-23T10:43:37;17.70;21.10
11399;DHT22;5755;48.116;11.608;2023-03-23T10:46:20;17.70;20.90
11399;DHT22;5755;48.116;11.608;2023-03-23T10:48:50;17.70;20.40
11399;DHT22;5755;48.116;11.608;2023-03-23T10:51:35;17.70;20.20
11399;DHT22;5755;48.116;11.608;2023-03-23T10:54:26;17.70;20.60
11399;DHT22;5755;48.116;11.608;2023-03-23T10:57:21;17.70;20.10
11399;DHT22;5755;48.116;11.608;2023-03-23T11:10:51;17.80;18.90
11399;DHT22;5755;48.116;11.608;2023-03-23T11:14:11;18.10;19.40
11399;DHT22;5755;48.116;11.608;2023-03-23T11:16:45;18.10;19.50
11399;DHT22;5755;48.116;11.608;2023-03-23T11:19:28;18.10;19.60
11399;DHT22;5755;48.116;11.608;2023-03-23T11:22:08;18.20;19.80
11399;DHT22;5755;48.116;11.608;2023-03-23T11:24:53;18.20;19.70
11399;DHT22;5755;48.116;11.608;2023-03-23T11:27:37;18.30;19.20
11399;DHT22;5755;48.116;11.608;2023-03-23T11:30:36;18.40;19.40
11399;DHT22;5755;48.116;11.608;2023-03-23T11:33:05;18.50;19.00
11399;DHT22;5755;48.116;11.608;2023-03-23T11:35:47;18.70;19.50
11399;DHT22;5755;48.116;11.608;2023-03-23T11:38:18;18.80;18.80
11399;DHT22;5755;48.116;11.608;2023-03-23T11:40:59;19.00;17.70
11399;DHT22;5755;48.116;11.608;2023-03-23T11:43:28;19.00;17.60
11399;DHT22;5755;48.116;11.608;2023-03-23T11:46:02;19.20;16.60
11399;DHT22;5755;48.116;11.608;2023-03-23T11:48:54;19.30;16.80
11399;DHT22;5755;48.116;11.608;2023-03-23T11:51:41;19.40;16.30
11399;DHT22;5755;48.116;11.608;2023-03-23T11:54:28;19.40;15.80
11399;DHT22;5755;48.116;11.608;2023-03-23T11:57:41;19.40;16.20
11399;DHT22;5755;48.116;11.608;2023-03-23T12:00:24;19.50;15.30
11399;DHT22;5755;48.116;11.608;2023-03-23T12:02:55;19.30;15.30
11399;DHT22;5755;48.116;11.608;2023-03-23T12:05:45;19.30;15.30
11399;DHT22;5755;48.116;11.608;2023-03-23T12:08:23;19.30;16.50
11399;DHT22;5755;48.116;11.608;2023-03-23T12:10:59;19.40;16.60
11399;DHT22;5755;48.116;11.608;2023-03-23T12:13:47;19.30;15.70
11399;DHT22;5755;48.116;11.608;2023-03-23T12:16:38;19.30;16.00
11399;DHT22;5755;48.116;11.608;2023-03-23T12:19:45;19.30;16.90
11399;DHT22;5755;48.116;11.608;2023-03-23T12:22:24;19.40;16.40
11399;DHT22;5755;48.116;11.608;2023-03-23T12:25:08;19.30;16.20
11399;DHT22;5755;48.116;11.608;2023-03-23T12:27:46;19.40;16.80
11399;DHT22;5755;48.116;11.608;2023-03-23T12:43:19;19.80;16.20
11399;DHT22;5755;48.116;11.608;2023-03-23T12:46:17;19.80;17.00
11399;DHT22;5755;48.116;11.608;2023-03-23T12:48:49;19.60;14.70
11399;DHT22;5755;48.116;11.608;2023-03-23T12:51:59;19.40;16.10
11399;DHT22;5755;48.116;11.608;2023-03-23T12:54:56;19.30;16.10
11399;DHT22;5755;48.116;11.608;2023-03-23T12:57:38;19.40;16.60
11399;DHT22;5755;48.116;11.608;2023-03-23T13:00:19;19.50;16.60
11399;DHT22;5755;48.116;11.608;2023-03-23T13:03:00;19.40;16.20
11399;DHT22;5755;48.116;11.608;2023-03-23T13:05:44;19.50;15.30
11399;DHT22;5755;48.116;11.608;2023-03-23T13:08:31;19.40;15.10
11399;DHT22;5755;48.116;11.608;2023-03-23T13:11:12;19.30;15.00
11399;DHT22;5755;48.116;11.608;2023-03-23T13:13:56;19.30;15.90
11399;DHT22;5755;48.116;11.608;2023-03-23T13:16:35;19.30;15.00
11399;DHT22;5755;48.116;11.608;2023-03-23T13:19:34;19.30;14.70
11399;DHT22;5755;48.116;11.608;2023-03-23T13:22:11;19.20;15.60
11399;DHT22;5755;48.116;11.608;2023-03-23T13:24:53;19.20;14.60
11399;DHT22;5755;48.116;11.608;2023-03-23T13:27:57;19.00;15.20
11399;DHT22;5755;48.116;11.608;2023-03-23T13:30:37;18.80;15.50
11399;DHT22;5755;48.116;11.608;2023-03-23T13:33:11;18.80;15.20
11399;DHT22;5755;48.116;11.608;2023-03-23T13:36:11;18.80;15.60
11399;DHT22;5755;48.116;11.608;2023-03-23T13:38:52;18.90;15.50
11399;DHT22;5755;48.116;11.608;2023-03-23T13:41:20;18.90;14.70
11399;DHT22;5755;48.116;11.608;2023-03-23T13:43:48;18.90;16.30
11399;DHT22;5755;48.116;11.608;2023-03-23T13:46:27;19.00;15.40
11399;DHT22;5755;48.116;11.608;2023-03-23T13:49:44;19.00;15.40
11399;DHT22;5755;48.116;11.608;2023-03-23T13:52:46;19.00;16.10
11399;DHT22;5755;48.116;11.608;2023-03-23T13:55:37;19.00;16.50
11399;DHT22;5755;48.116;11.608;2023-03-23T13:58:29;18.90;16.50
11399;DHT22;5755;48.116;11.608;2023-03-23T14:01:12;18.90;17.20
11399;DHT22;5755;48.116;11.608;2023-03-23T14:03:42;19.00;17.10
11399;DHT22;5755;48.116;11.608;2023-03-23T14:06:14;19.10;17.20
11399;DHT22;5755;48.116;11.608;2023-03-23T14:08:56;19.30;17.30
11399;DHT22;5755;48.116;11.608;2023-03-23T14:27:13;18.60;18.90
11399;DHT22;5755;48.116;11.608;2023-03-23T14:29:58;18.40;19.40
11399;DHT22;5755;48.116;11.608;2023-03-23T14:32:27;18.30;19.20
11399;DHT22;5755;48.116;11.608;2023-03-23T14:35:14;18.20;19.00
11399;DHT22;5755;48.116;11.608;2023-03-23T14:37:43;18.30;19.20
11399;DHT22;5755;48.116;11.608;2023-03-23T14:40:13;18.20;19.00
11399;DHT22;5755;48.116;11.608;2023-03-23T14:42:43;18.30;19.20
11399;DHT22;5755;48.116;11.608;2023-03-23T14:45:24;18.20;18.70
11399;DHT22;5755;48.116;11.608;2023-03-23T14:48:06;18.30;19.20
11399;DHT22;5755;48.116;11.608;2023-03-23T14:50:38;18.20;18.70
11399;DHT22;5755;48.116;11.608;2023-03-23T14:53:12;18.20;19.10
11399;DHT22;5755;48.116;11.608;2023-03-23T14:55:42;18.20;18.50
11399;DHT22;5755;48.116;11.608;2023-03-23T14:58:16;18.20;19.10
11399;DHT22;5755;48.116;11.608;2023-03-23T15:01:09;18.20;19.30
11399;DHT22;5755;48.116;11.608;2023-03-23T15:03:41;18.20;19.70
11399;DHT22;5755;48.116;11.608;2023-03-23T15:06:12;18.10;19.50
11399;DHT22;5755;48.116;11.608;2023-03-23T15:08:40;17.90;19.60
11399;DHT22;5755;48.116;11.608;2023-03-23T15:11:12;17.90;20.60
11399;DHT22;5755;48.116;11.608;2023-03-23T15:13:45;17.80;20.00
11399;DHT22;5755;48.116;11.608;2023-03-23T15:16:15;17.70;20.50
11399;DHT22;5755;48.116;11.608;2023-03-23T15:18:49;17.70;20.50
11399;DHT22;5755;48.116;11.608;2023-03-23T15:21:25;17.60;21.30
11399;DHT22;5755;48.116;11.608;2023-03-23T15:23:53;17.60;20.90
11399;DHT22;5755;48.116;11.608;2023-03-23T15:26:30;17.60;21.00
11399;DHT22;5755;48.116;11.608;2023-03-23T15:29:11;17.60;21.40
11399;DHT22;5755;48.116;11.608;2023-03-23T15:31:41;17.60;21.50
11399;DHT22;5755;48.116;11.608;2023-03-23T15:34:13;17.60;21.90
11399;DHT22;5755;48.116;11.608;2023-03-23T15:36:41;17.60;21.80
11399;DHT22;5755;48.116;11.608;2023-03-23T15:39:10;17.50;21.80
11399;DHT22;5755;48.116;11.608;2023-03-23T15:41:47;17.50;22.20
11399;DHT22;5755;48.116;11.608;2023-03-23T15:44:23;17.50;21.50
11399;DHT22;5755;48.116;11.608;2023-03-23T15:46:52;17.40;22.00
11399;DHT22;5755;48.116;11.608;2023-03-23T15:49:21;17.40;22.80
11399;DHT22;5755;48.116;11.608;2023-03-23T15:51:49;17.30;23.40
11399;DHT22;5755;48.116;11.608;2023-03-23T15:54:16;17.30;23.50
11399;DHT22;5755;48.116;11.608;2023-03-23T15:56:44;17.20;23.90
11399;DHT22;5755;48.116;11.608;2023-03-23T15:59:11;17.10;23.90
11399;DHT22;5755;48.116;11.608;2023-03-23T16:01:41;17.10;23.10
11399;DHT22;5755;48.116;11.608;2023-03-23T16:04:12;17.00;23.00
11399;DHT22;5755;48.116;11.608;2023-03-23T16:06:40;17.00;23.50
11399;DHT22;5755;48.116;11.608;2023-03-23T16:09:11;16.90;23.10
11399;DHT22;5755;48.116;11.608;2023-03-23T16:11:39;16.90;23.50
11399;DHT22;5755;48.116;11.608;2023-03-23T16:14:06;16.80;24.10
11399;DHT22;5755;48.116;11.608;2023-03-23T16:16:38;16.70;24.30
11399;DHT22;5755;48.116;11.608;2023-03-23T16:19:15;16.60;24.80
11399;DHT22;5755;48.116;11.608;2023-03-23T16:21:56;16.50;25.70
11399;DHT22;5755;48.116;11.608;2023-03-23T16:24:23;16.40;26.00
11399;DHT22;5755;48.116;11.608;2023-03-23T16:27:04;16.40;27.00
11399;DHT22;5755;48.116;11.608;2023-03-23T16:29:31;16.30;28.30
11399;DHT22;5755;48.116;11.608;2023-03-23T16:32:12;16.20;28.70
11399;DHT22;5755;48.116;11.608;2023-03-23T16:34:40;16.20;28.90
11399;DHT22;5755;48.116;11.608;2023-03-23T16:37:08;16.20;28.90
11399;DHT22;5755;48.116;11.608;2023-03-23T16:39:36;16.10;28.80
11399;DHT22;5755;48.116;11.608;2023-03-23T16:42:04;16.00;30.30
11399;DHT22;5755;48.116;11.608;2023-03-23T16:44:31;16.00;30.30
11399;DHT22;5755;48.116;11.608;2023-03-23T16:46:58;16.00;34.10
11399;DHT22;5755;48.116;11.608;2023-03-23T16:49:25;15.90;32.60
11399;DHT22;5755;48.116;11.608;2023-03-23T16:54:43;15.80;36.30
11399;DHT22;5755;48.116;11.608;2023-03-23T16:57:26;15.70;38.50
11399;DHT22;5755;48.116;11.608;2023-03-23T16:59:53;15.60;38.30
11399;DHT22;5755;48.116;11.608;2023-03-23T17:02:22;15.60;39.30
11399;DHT22;5755;48.116;11.608;2023-03-23T17:04:50;15.60;39.40
11399;DHT22;5755;48.116;11.608;2023-03-23T17:07:18;15.50;41.20
11399;DHT22;5755;48.116;11.608;2023-03-23T17:09:45;15.50;44.20
11399;DHT22;5755;48.116;11.608;2023-03-23T17:12:12;15.50;42.60
11399;DHT22;5755;48.116;11.608;2023-03-23T17:14:39;15.50;42.60
11399;DHT22;5755;48.116;11.608;2023-03-23T17:17:06;15.50;42.20
11399;DHT22;5755;48.116;11.608;2023-03-23T17:19:33;15.50;40.10
11399;DHT22;5755;48.116;11.608;2023-03-23T17:22:00;15.50;40.90
11399;DHT22;5755;48.116;11.608;2023-03-23T17:24:28;15.40;42.40
11399;DHT22;5755;48.116;11.608;2023-03-23T17:26:55;15.30;43.30
11399;DHT22;5755;48.116;11.608;2023-03-23T17:29:22;15.20;46.10
11399;DHT22;5755;48.116;11.608;2023-03-23T17:31:49;15.10;47.30
11399;DHT22;5755;48.116;11.608;2023-03-23T17:34:17;15.00;48.00
11399;DHT22;5755;48.116;11.608;2023-03-23T17:36:44;15.00;48.90
11399;DHT22;5755;48.116;11.608;2023-03-23T17:39:11;14.90;48.90
11399;DHT22;5755;48.116;11.608;2023-03-23T17:41:39;14.90;48.00
11399;DHT22;5755;48.116;11.608;2023-03-23T17:44:06;14.90;47.40
11399;DHT22;5755;48.116;11.608;2023-03-23T17:46:33;14.80;48.20
11399;DHT22;5755;48.116;11.608;2023-03-23T17:49:00;14.80;51.20
11399;DHT22;5755;48.116;11.608;2023-03-23T17:51:28;14.70;51.10
11399;DHT22;5755;48.116;11.608;2023-03-23T17:53:55;14.70;51.10
11399;DHT22;5755;48.116;11.608;2023-03-23T17:56:24;14.60;48.50
11399;DHT22;5755;48.116;11.608;2023-03-23T17:58:53;14.60;50.60
11399;DHT22;5755;48.116;11.608;2023-03-23T18:01:22;14.50;50.90
11399;DHT22;5755;48.116;11.608;2023-03-23T18:03:49;14.50;50.90
11399;DHT22;5755;48.116;11.608;2023-03-23T18:06:17;14.50;50.80
11399;DHT22;5755;48.116;11.608;2023-03-23T18:08:45;14.50;50.90
11399;DHT22;5755;48.116;11.608;2023-03-23T18:11:12;14.60;51.00